Airfield :
LOGIN :

Register | Disclaimer

   EN    FR    IT 

 










Legend :    VFR   Marginal VFR   IFR   Intensive IFR   Very Intensive IFR
Visi :
Ceiling :
>= 8 km
>= 3000ft
5 to 8 km
1000 to 3000 ft
1500m to 5 km
500 to 1000 ft
800 to 1500m
200 to 500 ft
< 800m
< 200 ft
Symbols :   Thunderstorms  Fog  Heavy snow  Heavy precipitations  Wind > 20 kt
SIGMETs :     Misc.  Thunderstorms  Icing  Turbulence  Mountain Waves  Volcanic Ashes






- Airport Elevation : 33 ft
- IATA code : PLQ


EYPA - Palanga

CURRENT METAR :
  • 121820Z 16008KT 9999 -RA FEW024 BKN047 08/06 Q1010 R19/1///95

EXPIRED METARs :
  • 121750Z 16008KT 9999 FEW023 SCT049 BKN073 07/05 Q1010 R19/1///95
  • 121720Z 16009KT 9999 SCT024 BKN110 07/05 Q1010 R19/1///95
  • 121650Z 16011KT 9999 BKN023 BKN097 07/05 Q1010 R19/1///95
  • 121620Z 16009KT 9999 SCT024 BKN034 07/05 Q1010 R19/1///95
  • 121550Z 16009KT 9999 BKN023 BKN036 08/05 Q1011 R19/1///95

TAF TAF EYPA
Valid from the 12 at 18:00 until the 13 at 18:00 UTC


121700Z 1218/1318 15012G24KT 5000 BR BKN007 OVC013
TEMPO 1218/1306 1500 RA BKN003
TEMPO 1308/1317 2000 RA BKN004



MET'MAP, your aeronautical weather chart ! - Copyright ORBIFLY December 2007 - Disclaimer

ORBIFLY MET'MAP TEAM :

Programming & Development : Alexandra Zaïnal
Concept & Development : Baudouin d'Aumeries
Co-Development & Prog : Marc-Olivier Méhu
Technical & hardware support : Manuel Goepfert

Contact : metmap@orbifly.com




SOURCES & CREDITS :

   NOAA